Time;durP1;ratioP1;P1;durP2;ratioP2;P2;SDS_P1;SDS_P2;PMS_P1;PMS_P2;Temp;Humidity;BMP_temperature;BMP_pressure;BME280_temperature;BME280_humidity;BME280_pressure;Samples;Min_cycle;Max_cycle;Signal;HPM_P1;HPM_P2
2022/12/22 03:30:37;;;;;;;3.20;2.20;;;;;;;;;;10410307;28;20180;-63
2022/12/22 03:35:37;;;;;;;3.37;2.60;;;;;;;;;;10410944;28;20201;-64
2022/12/22 03:40:37;;;;;;;3.67;2.87;;;;;;;;;;10411413;28;20188;-64
2022/12/22 03:50:57;;;;;;;3.67;3.27;;;;;;;;;;10410504;28;20247;-64
2022/12/22 03:55:57;;;;;;;3.80;3.10;;;;;;;;;;10410264;28;20295;-62
2022/12/22 04:01:04;;;;;;;4.57;2.77;;;;;;;;;;10410659;28;20200;-64
2022/12/22 04:06:05;;;;;;;3.50;2.70;;;;;;;;;;10403050;28;20303;-64
2022/12/22 04:16:24;;;;;;;4.57;2.70;;;;;;;;;;10402366;28;20258;-64
2022/12/22 04:21:24;;;;;;;3.20;2.47;;;;;;;;;;10401574;28;20528;-64
2022/12/22 04:26:25;;;;;;;4.57;3.73;;;;;;;;;;10401530;28;20228;-64
2022/12/22 04:31:25;;;;;;;5.17;3.63;;;;;;;;;;10401339;28;20635;-64
2022/12/22 04:36:25;;;;;;;5.30;3.87;;;;;;;;;;10400354;28;20208;-63
2022/12/22 04:41:25;;;;;;;3.97;3.57;;;;;;;;;;10401817;28;20549;-64
2022/12/22 04:46:25;;;;;;;4.90;4.07;;;;;;;;;;10400953;28;20210;-64
2022/12/22 04:51:26;;;;;;;5.53;3.97;;;;;;;;;;10400918;28;20220;-64
2022/12/22 04:56:26;;;;;;;4.13;2.93;;;;;;;;;;10400947;28;20201;-63
2022/12/22 05:01:26;;;;;;;4.67;3.80;;;;;;;;;;10402088;28;20668;-64
2022/12/22 05:06:27;;;;;;;4.20;3.57;;;;;;;;;;10407571;28;20212;-64
2022/12/22 05:11:27;;;;;;;3.83;3.17;;;;;;;;;;10407243;28;20212;-64
2022/12/22 05:16:27;;;;;;;4.60;3.20;;;;;;;;;;10407069;28;20691;-64
2022/12/22 05:21:27;;;;;;;5.30;3.50;;;;;;;;;;10407726;28;20184;-63
2022/12/22 05:26:27;;;;;;;3.60;3.20;;;;;;;;;;10406821;28;20769;-63
2022/12/22 05:31:27;;;;;;;2.97;2.20;;;;;;;;;;10407347;28;20587;-62
2022/12/22 05:36:28;;;;;;;2.93;2.53;;;;;;;;;;10406457;28;20209;-64
2022/12/22 05:41:28;;;;;;;3.10;2.67;;;;;;;;;;10407534;28;20189;-62
2022/12/22 05:46:28;;;;;;;2.93;2.57;;;;;;;;;;10406027;28;20263;-63
2022/12/22 05:51:28;;;;;;;3.50;2.53;;;;;;;;;;10406764;28;20218;-63
2022/12/22 05:56:28;;;;;;;4.60;3.47;;;;;;;;;;10410885;28;20196;-63
2022/12/22 06:01:28;;;;;;;3.37;2.80;;;;;;;;;;10381814;28;20220;-63
2022/12/22 06:06:29;;;;;;;3.53;3.20;;;;;;;;;;10372955;28;20230;-61
2022/12/22 06:11:29;;;;;;;4.60;3.80;;;;;;;;;;10374298;28;20695;-60
2022/12/22 06:16:29;;;;;;;4.70;3.73;;;;;;;;;;10373355;28;20544;-62
2022/12/22 06:21:29;;;;;;;4.00;3.50;;;;;;;;;;10378997;28;20177;-62
2022/12/22 06:26:29;;;;;;;3.63;2.63;;;;;;;;;;10368507;23;1105252;-58
2022/12/22 06:31:29;;;;;;;4.30;3.53;;;;;;;;;;10413306;28;20220;-57
2022/12/22 06:36:30;;;;;;;2.63;2.17;;;;;;;;;;10412870;28;20203;-58
2022/12/22 06:46:49;;;;;;;3.70;2.87;;;;;;;;;;10410852;28;20204;-57
2022/12/22 06:51:49;;;;;;;3.53;3.13;;;;;;;;;;10411805;28;20645;-57
2022/12/22 06:56:49;;;;;;;2.77;2.33;;;;;;;;;;10412350;28;20733;-58
2022/12/22 07:01:49;;;;;;;3.80;3.40;;;;;;;;;;10412929;28;20275;-59
2022/12/22 07:06:49;;;;;;;4.20;2.63;;;;;;;;;;10411852;28;20207;-58
2022/12/22 07:11:50;;;;;;;3.53;2.90;;;;;;;;;;10411489;28;20270;-55
2022/12/22 07:16:50;;;;;;;3.50;2.67;;;;;;;;;;10411522;28;20219;-58
2022/12/22 07:21:50;;;;;;;2.40;2.13;;;;;;;;;;10411413;28;20189;-56
2022/12/22 07:26:50;;;;;;;5.40;4.30;;;;;;;;;;10410663;28;20239;-57
2022/12/22 07:31:51;;;;;;;4.27;2.77;;;;;;;;;;10411594;28;20727;-55
2022/12/22 07:36:51;;;;;;;3.23;2.93;;;;;;;;;;10410629;28;20223;-55
2022/12/22 07:47:10;;;;;;;3.37;2.87;;;;;;;;;;10410406;28;20212;-57
2022/12/22 07:52:10;;;;;;;3.50;3.20;;;;;;;;;;10411024;28;20224;-60
2022/12/22 07:57:10;;;;;;;4.00;2.90;;;;;;;;;;10395033;28;20586;-58
2022/12/22 08:02:11;;;;;;;4.50;3.47;;;;;;;;;;10406962;28;20196;-59
2022/12/22 08:07:11;;;;;;;4.67;3.33;;;;;;;;;;10406560;28;20270;-56
2022/12/22 08:12:11;;;;;;;3.50;2.90;;;;;;;;;;10404895;28;20768;-59
2022/12/22 08:17:11;;;;;;;3.60;2.93;;;;;;;;;;10404056;28;20208;-58
2022/12/22 08:22:12;;;;;;;2.53;2.33;;;;;;;;;;10373045;28;20201;-58
2022/12/22 08:27:14;;;;;;;2.23;2.03;;;;;;;;;;10396426;28;20256;-60
2022/12/22 08:32:14;;;;;;;3.53;2.43;;;;;;;;;;10396251;28;20235;-57
2022/12/22 08:37:15;;;;;;;3.07;2.50;;;;;;;;;;10397350;28;20209;-59
2022/12/22 08:42:17;;;;;;;4.97;2.83;;;;;;;;;;10397614;28;20964;-61
2022/12/22 08:47:17;;;;;;;2.80;2.50;;;;;;;;;;10397404;28;20756;-59
2022/12/22 08:52:17;;;;;;;6.57;2.47;;;;;;;;;;10400443;28;20351;-62
2022/12/22 08:57:18;;;;;;;3.50;2.37;;;;;;;;;;10397393;28;20205;-60
2022/12/22 09:02:18;;;;;;;3.77;2.57;;;;;;;;;;10396197;28;20547;-62
2022/12/22 09:07:18;;;;;;;3.03;2.57;;;;;;;;;;10400564;28;20197;-61
2022/12/22 09:12:18;;;;;;;5.63;3.17;;;;;;;;;;10397240;28;20233;-59
2022/12/22 09:17:18;;;;;;;15.40;7.43;;;;;;;;;;10397923;28;20208;-60
2022/12/22 09:22:19;;;;;;;85.47;39.77;;;;;;;;;;10399320;28;20566;-60
2022/12/22 09:27:19;;;;;;;48.67;25.07;;;;;;;;;;10397616;28;20236;-63
2022/12/22 09:32:19;;;;;;;13.80;8.60;;;;;;;;;;10397312;28;20604;-63
2022/12/22 09:37:19;;;;;;;12.30;8.90;;;;;;;;;;10398404;28;20222;-60
2022/12/22 09:42:20;;;;;;;10.17;9.17;;;;;;;;;;10398188;28;20195;-57
2022/12/22 09:47:36;;;;;;;3.00;2.80;;;;;;;;;;10397548;28;20215;-60
2022/12/22 09:52:36;;;;;;;2.17;1.97;;;;;;;;;;10399999;28;20259;-60
2022/12/22 09:57:36;;;;;;;2.10;1.90;;;;;;;;;;10397254;28;20209;-59
2022/12/22 10:02:45;;;;;;;1.97;1.77;;;;;;;;;;10398295;28;20188;-61
2022/12/22 10:07:45;;;;;;;2.87;1.90;;;;;;;;;;10397708;28;20215;-62
2022/12/22 10:12:48;;;;;;;1.50;1.40;;;;;;;;;;10397453;28;20212;-59
2022/12/22 10:17:49;;;;;;;2.57;1.50;;;;;;;;;;10397486;28;20213;-62
2022/12/22 10:22:59;;;;;;;1.57;1.47;;;;;;;;;;10399180;28;20196;-60
2022/12/22 10:28:05;;;;;;;3.13;1.40;;;;;;;;;;10397791;28;20241;-62
2022/12/22 10:33:06;;;;;;;2.17;1.97;;;;;;;;;;10397074;28;20224;-62
2022/12/22 10:38:32;;;;;;;1.40;1.20;;;;;;;;;;10394735;28;20208;-61
2022/12/22 10:43:37;;;;;;;1.53;1.43;;;;;;;;;;10401005;28;20200;-62
2022/12/22 10:48:38;;;;;;;1.00;1.00;;;;;;;;;;10405044;28;20220;-62
2022/12/22 10:53:40;;;;;;;1.20;1.10;;;;;;;;;;10403973;28;20228;-61
2022/12/22 10:58:48;;;;;;;1.20;1.10;;;;;;;;;;10405556;28;20274;-61
2022/12/22 11:03:48;;;;;;;0.80;0.80;;;;;;;;;;10403983;28;20181;-62
2022/12/22 11:08:49;;;;;;;1.23;0.87;;;;;;;;;;10402288;28;20729;-60
2022/12/22 11:14:00;;;;;;;3.93;3.00;;;;;;;;;;10405065;28;20270;-61
2022/12/22 11:19:28;;;;;;;1.57;1.33;;;;;;;;;;10403281;28;20205;-62
2022/12/22 11:24:29;;;;;;;1.97;1.50;;;;;;;;;;10403329;28;20284;-59
2022/12/22 11:29:32;;;;;;;1.20;1.10;;;;;;;;;;10403939;28;20237;-62
2022/12/22 11:34:41;;;;;;;1.10;1.00;;;;;;;;;;10402274;28;20984;-61
2022/12/22 11:39:45;;;;;;;0.63;0.63;;;;;;;;;;10401458;28;20208;-61
2022/12/22 11:44:49;;;;;;;0.80;0.80;;;;;;;;;;10402613;28;20254;-61
2022/12/22 11:49:55;;;;;;;0.70;0.63;;;;;;;;;;10402817;28;20208;-58
2022/12/22 11:55:16;;;;;;;0.73;0.73;;;;;;;;;;10400338;28;20231;-60
2022/12/22 12:00:17;;;;;;;1.37;0.73;;;;;;;;;;10401109;28;20223;-59
2022/12/22 12:05:25;;;;;;;1.30;1.20;;;;;;;;;;10401075;28;20658;-60
2022/12/22 12:10:26;;;;;;;0.80;0.80;;;;;;;;;;10401670;28;20250;-54
2022/12/22 12:15:42;;;;;;;1.00;0.87;;;;;;;;;;10398257;28;20228;-58
2022/12/22 12:20:51;;;;;;;2.00;1.00;;;;;;;;;;10401471;28;20188;-59
2022/12/22 12:26:01;;;;;;;2.63;1.10;;;;;;;;;;10399470;28;20236;-56
2022/12/22 12:31:02;;;;;;;2.77;0.77;;;;;;;;;;10398521;28;20339;-59
2022/12/22 12:36:28;;;;;;;0.90;0.70;;;;;;;;;;10399078;28;20781;-60
2022/12/22 12:41:32;;;;;;;2.40;0.87;;;;;;;;;;10367163;28;20201;-60
2022/12/22 12:46:52;;;;;;;1.37;0.70;;;;;;;;;;10394784;28;20632;-61
2022/12/22 12:51:54;;;;;;;1.83;1.40;;;;;;;;;;10394160;28;20208;-59
2022/12/22 12:56:57;;;;;;;1.10;1.00;;;;;;;;;;10399778;28;20585;-61
2022/12/22 13:01:58;;;;;;;0.60;0.60;;;;;;;;;;10400385;28;20254;-60
2022/12/22 13:06:59;;;;;;;1.90;1.00;;;;;;;;;;10402875;28;20213;-61
2022/12/22 13:12:19;;;;;;;0.70;0.63;;;;;;;;;;10405853;28;20225;-62
2022/12/22 13:17:38;;;;;;;1.80;1.00;;;;;;;;;;10399598;28;20455;-61
2022/12/22 13:22:39;;;;;;;2.10;0.90;;;;;;;;;;10397051;28;20191;-60
2022/12/22 13:27:39;;;;;;;1.50;0.70;;;;;;;;;;10398895;28;20247;-62
2022/12/22 13:32:40;;;;;;;1.20;0.70;;;;;;;;;;10397125;28;20638;-62
2022/12/22 13:37:42;;;;;;;1.00;0.83;;;;;;;;;;10396721;28;20209;-61
2022/12/22 13:42:50;;;;;;;1.27;1.17;;;;;;;;;;10400205;28;20192;-61
2022/12/22 13:47:50;;;;;;;4.27;1.10;;;;;;;;;;10398494;28;20585;-62
2022/12/22 13:52:51;;;;;;;2.23;1.10;;;;;;;;;;10397971;28;20216;-62
2022/12/22 13:57:52;;;;;;;5.17;2.70;;;;;;;;;;10397957;28;20212;-60
2022/12/22 14:02:52;;;;;;;0.90;0.90;;;;;;;;;;10399491;28;20219;-61
2022/12/22 14:07:56;;;;;;;0.90;0.90;;;;;;;;;;10398044;28;20213;-61
2022/12/22 14:12:57;;;;;;;0.97;0.80;;;;;;;;;;10398501;28;20212;-62
2022/12/22 14:17:58;;;;;;;1.80;1.57;;;;;;;;;;10407234;28;20997;-62
2022/12/22 14:23:05;;;;;;;3.33;2.37;;;;;;;;;;10405285;28;20279;-61
2022/12/22 14:28:10;;;;;;;2.23;1.37;;;;;;;;;;10413559;28;20244;-61
2022/12/22 14:33:25;;;;;;;4.47;3.07;;;;;;;;;;10430117;28;20970;-61
2022/12/22 14:38:25;;;;;;;7.30;4.07;;;;;;;;;;10442238;28;20215;-61
2022/12/22 14:43:27;;;;;;;7.33;4.10;;;;;;;;;;10420192;28;20203;-62
2022/12/22 14:48:29;;;;;;;5.97;3.67;;;;;;;;;;10408382;28;20582;-61
2022/12/22 14:53:44;;;;;;;1.73;1.60;;;;;;;;;;10405472;28;20301;-62
2022/12/22 14:58:45;;;;;;;3.30;3.00;;;;;;;;;;10437417;28;21794;-60
2022/12/22 15:03:59;;;;;;;2.93;1.33;;;;;;;;;;10407205;28;20188;-62
2022/12/22 15:09:05;;;;;;;4.20;2.60;;;;;;;;;;10403286;28;20265;-61
2022/12/22 15:14:15;;;;;;;6.50;3.97;;;;;;;;;;10403136;28;20632;-61
2022/12/22 15:19:26;;;;;;;3.03;2.73;;;;;;;;;;10399276;28;20209;-61
2022/12/22 15:24:28;;;;;;;3.67;2.13;;;;;;;;;;10401504;28;20272;-60
2022/12/22 15:29:28;;;;;;;5.70;1.53;;;;;;;;;;10397675;28;20248;-60
2022/12/22 15:34:30;;;;;;;3.80;2.60;;;;;;;;;;10402399;28;20217;-60
2022/12/22 15:39:30;;;;;;;2.83;1.80;;;;;;;;;;10402668;28;21080;-60
2022/12/22 15:44:30;;;;;;;1.43;1.30;;;;;;;;;;10401331;28;20189;-59
2022/12/22 15:49:31;;;;;;;2.33;2.13;;;;;;;;;;10398047;28;20212;-59
2022/12/22 15:54:32;;;;;;;3.17;2.17;;;;;;;;;;10402517;28;20233;-59
2022/12/22 15:59:32;;;;;;;2.30;1.60;;;;;;;;;;10401346;28;21386;-58
2022/12/22 16:04:32;;;;;;;2.23;2.00;;;;;;;;;;10402105;28;20200;-56
2022/12/22 16:09:39;;;;;;;2.20;2.00;;;;;;;;;;10402693;28;20216;-58
2022/12/22 16:14:40;;;;;;;2.20;2.00;;;;;;;;;;10406334;28;20637;-57
2022/12/22 16:19:40;;;;;;;2.30;2.20;;;;;;;;;;10405117;28;20602;-58
2022/12/22 16:24:42;;;;;;;2.90;2.60;;;;;;;;;;10405392;28;20197;-58
2022/12/22 16:29:51;;;;;;;2.57;2.37;;;;;;;;;;10406146;28;20271;-57
2022/12/22 16:34:52;;;;;;;2.30;2.20;;;;;;;;;;10408419;28;20227;-58
2022/12/22 16:39:52;;;;;;;1.77;1.67;;;;;;;;;;10408419;28;20585;-55
2022/12/22 16:44:53;;;;;;;1.90;1.80;;;;;;;;;;10408472;28;20617;-60
2022/12/22 16:49:53;;;;;;;2.23;2.03;;;;;;;;;;10408920;28;20822;-60
2022/12/22 16:54:54;;;;;;;2.00;1.90;;;;;;;;;;10407377;28;20302;-58
2022/12/22 16:59:54;;;;;;;3.03;2.10;;;;;;;;;;10408539;28;20585;-59
2022/12/22 17:04:56;;;;;;;3.70;3.40;;;;;;;;;;10407710;28;20443;-60
2022/12/22 17:09:57;;;;;;;5.03;4.53;;;;;;;;;;10389879;28;20228;-57
2022/12/22 17:14:59;;;;;;;8.43;7.47;;;;;;;;;;10407577;28;20224;-57
2022/12/22 17:19:59;;;;;;;7.40;6.70;;;;;;;;;;10407993;28;20212;-60
2022/12/22 17:25:00;;;;;;;9.37;7.47;;;;;;;;;;10406428;28;20196;-58
2022/12/22 17:30:04;;;;;;;8.03;7.23;;;;;;;;;;10407927;28;20271;-58
2022/12/22 17:35:04;;;;;;;11.13;9.97;;;;;;;;;;10405995;28;20307;-57
2022/12/22 17:40:05;;;;;;;12.73;9.83;;;;;;;;;;10407650;28;20280;-61
2022/12/22 17:45:10;;;;;;;11.17;9.90;;;;;;;;;;10406500;28;20212;-58
2022/12/22 17:50:13;;;;;;;10.37;9.27;;;;;;;;;;10405950;28;20188;-59
2022/12/22 17:55:18;;;;;;;11.90;10.33;;;;;;;;;;10405302;28;20216;-59
2022/12/22 18:00:20;;;;;;;11.33;10.13;;;;;;;;;;10406744;28;20197;-54
2022/12/22 18:05:22;;;;;;;12.10;10.80;;;;;;;;;;10405947;28;20567;-58
2022/12/22 18:10:23;;;;;;;14.30;12.70;;;;;;;;;;10406422;28;20272;-59
2022/12/22 18:15:24;;;;;;;13.20;11.80;;;;;;;;;;10406354;28;20231;-59
2022/12/22 18:20:25;;;;;;;14.63;12.23;;;;;;;;;;10406098;28;20662;-59
2022/12/22 18:25:26;;;;;;;16.10;12.27;;;;;;;;;;10405750;28;20319;-56
2022/12/22 18:30:27;;;;;;;12.67;11.13;;;;;;;;;;10426644;23;20762;-61
2022/12/22 18:35:28;;;;;;;11.53;10.33;;;;;;;;;;10405694;28;20209;-62
2022/12/22 18:40:28;;;;;;;10.00;9.00;;;;;;;;;;10406303;28;20688;-61
2022/12/22 18:45:29;;;;;;;11.67;9.20;;;;;;;;;;10405499;28;20454;-63
2022/12/22 18:50:30;;;;;;;11.73;9.40;;;;;;;;;;10405334;28;20211;-62
2022/12/22 18:55:31;;;;;;;10.27;9.07;;;;;;;;;;10404944;28;20236;-63
2022/12/22 19:00:34;;;;;;;9.20;8.27;;;;;;;;;;10407832;28;20223;-62
2022/12/22 19:05:36;;;;;;;10.00;8.80;;;;;;;;;;10412030;28;20196;-63
2022/12/22 19:10:39;;;;;;;9.70;8.50;;;;;;;;;;10412564;28;20219;-63
2022/12/22 19:15:40;;;;;;;10.33;8.90;;;;;;;;;;10410651;28;20307;-64
2022/12/22 19:20:40;;;;;;;9.13;7.87;;;;;;;;;;10410842;28;20205;-63
2022/12/22 19:25:42;;;;;;;8.83;7.57;;;;;;;;;;10410388;28;20671;-64
2022/12/22 19:30:42;;;;;;;11.23;8.63;;;;;;;;;;10410976;28;20236;-64
2022/12/22 19:35:42;;;;;;;11.70;8.23;;;;;;;;;;10409405;28;20228;-64
2022/12/22 19:40:42;;;;;;;12.07;8.53;;;;;;;;;;10410627;28;20196;-64
2022/12/22 19:45:43;;;;;;;11.80;8.10;;;;;;;;;;10410270;28;20246;-64
2022/12/22 19:50:43;;;;;;;11.23;9.20;;;;;;;;;;10409960;28;20189;-63
2022/12/22 19:55:47;;;;;;;11.60;9.07;;;;;;;;;;10409495;28;20557;-63
2022/12/22 20:00:47;;;;;;;13.13;10.07;;;;;;;;;;10409241;28;20207;-63
2022/12/22 20:05:47;;;;;;;11.30;8.87;;;;;;;;;;10408988;28;20275;-63
2022/12/22 20:10:48;;;;;;;12.70;9.20;;;;;;;;;;10409135;28;20192;-64
2022/12/22 20:15:48;;;;;;;12.10;9.40;;;;;;;;;;10407877;28;20508;-64
2022/12/22 20:20:55;;;;;;;14.57;10.03;;;;;;;;;;10409113;28;20188;-64
2022/12/22 20:25:57;;;;;;;14.10;10.63;;;;;;;;;;10408046;28;20196;-64
2022/12/22 20:30:57;;;;;;;13.10;9.93;;;;;;;;;;10408194;28;20203;-64
2022/12/22 20:35:58;;;;;;;17.23;12.10;;;;;;;;;;10407765;28;20227;-64
2022/12/22 20:40:59;;;;;;;17.77;11.73;;;;;;;;;;10407326;28;20651;-64
2022/12/22 20:46:01;;;;;;;19.60;12.00;;;;;;;;;;10405142;28;20216;-64
2022/12/22 20:51:01;;;;;;;14.33;11.00;;;;;;;;;;10406132;28;20675;-63
2022/12/22 20:56:02;;;;;;;13.43;9.73;;;;;;;;;;10390278;28;20220;-63
2022/12/22 21:01:02;;;;;;;15.20;9.93;;;;;;;;;;10384938;28;20221;-64
2022/12/22 21:06:11;;;;;;;12.23;7.80;;;;;;;;;;10385103;28;20208;-62
2022/12/22 21:11:11;;;;;;;8.90;6.67;;;;;;;;;;10407274;28;20193;-63
2022/12/22 21:16:13;;;;;;;14.80;10.57;;;;;;;;;;10406145;28;20220;-64
2022/12/22 21:21:13;;;;;;;11.50;7.73;;;;;;;;;;10407881;28;20782;-63
2022/12/22 21:26:19;;;;;;;14.13;9.67;;;;;;;;;;10407020;28;20321;-64
2022/12/22 21:31:19;;;;;;;20.47;13.03;;;;;;;;;;10406996;28;20282;-64
2022/12/22 21:36:24;;;;;;;15.40;9.80;;;;;;;;;;10407126;28;20205;-64
2022/12/22 21:46:44;;;;;;;7.53;5.07;;;;;;;;;;10406615;28;20220;-61
2022/12/22 21:51:44;;;;;;;7.57;5.30;;;;;;;;;;10406673;28;20232;-64
2022/12/22 21:56:45;;;;;;;6.70;5.50;;;;;;;;;;10406693;28;20224;-64
2022/12/22 22:01:45;;;;;;;7.47;5.17;;;;;;;;;;10404055;28;20211;-64
2022/12/22 22:06:45;;;;;;;6.23;5.20;;;;;;;;;;10406354;28;20235;-63
2022/12/22 22:17:05;;;;;;;7.17;3.67;;;;;;;;;;10406176;28;20208;-63
2022/12/22 22:22:05;;;;;;;6.10;5.40;;;;;;;;;;10406204;28;20245;-63
2022/12/22 22:27:05;;;;;;;4.13;3.57;;;;;;;;;;10405767;28;20237;-63
2022/12/22 22:32:05;;;;;;;6.77;4.20;;;;;;;;;;10405619;28;20228;-63
2022/12/22 22:37:05;;;;;;;5.40;3.97;;;;;;;;;;10410601;28;20208;-62
2022/12/22 22:42:05;;;;;;;5.37;4.10;;;;;;;;;;10413681;28;20196;-64
2022/12/22 22:47:05;;;;;;;7.03;3.90;;;;;;;;;;10413104;28;20247;-64
2022/12/22 22:52:06;;;;;;;5.83;4.40;;;;;;;;;;10413354;28;20224;-64
2022/12/22 22:57:06;;;;;;;7.10;4.13;;;;;;;;;;10412071;28;20212;-64
2022/12/22 23:02:06;;;;;;;4.60;3.50;;;;;;;;;;10413440;28;20193;-63
2022/12/22 23:07:07;;;;;;;2.47;2.27;;;;;;;;;;10412317;28;20221;-63
2022/12/22 23:12:07;;;;;;;3.87;3.40;;;;;;;;;;10412540;28;20220;-64
2022/12/22 23:17:07;;;;;;;3.83;3.40;;;;;;;;;;10412294;28;20204;-62
2022/12/22 23:22:07;;;;;;;2.13;1.90;;;;;;;;;;10412472;28;20188;-63
2022/12/22 23:27:07;;;;;;;3.30;2.13;;;;;;;;;;10411594;28;20242;-64
2022/12/22 23:32:08;;;;;;;2.60;2.20;;;;;;;;;;10412122;28;20220;-63
2022/12/22 23:37:08;;;;;;;2.10;1.90;;;;;;;;;;10411781;28;20204;-63
2022/12/22 23:42:08;;;;;;;1.80;1.70;;;;;;;;;;10411172;28;20674;-63
2022/12/22 23:47:08;;;;;;;2.17;1.63;;;;;;;;;;10411165;28;20224;-63
2022/12/22 23:52:08;;;;;;;1.40;1.30;;;;;;;;;;10410335;28;20307;-63
2022/12/22 23:57:08;;;;;;;2.23;1.70;;;;;;;;;;10410875;28;20262;-64
